sensor_id;sensor_type;location;lat;lon;timestamp;temperature;humidity
70421;SHT31;57848;51.938;15.520;2023-07-13T00:02:17;22.29;52.35
70421;SHT31;57848;51.938;15.520;2023-07-13T00:04:42;22.23;52.95
70421;SHT31;57848;51.938;15.520;2023-07-13T00:07:08;22.23;52.31
70421;SHT31;57848;51.938;15.520;2023-07-13T00:09:34;22.23;54.20
70421;SHT31;57848;51.938;15.520;2023-07-13T00:12:00;22.24;52.22
70421;SHT31;57848;51.938;15.520;2023-07-13T00:14:27;22.24;52.53
70421;SHT31;57848;51.938;15.520;2023-07-13T00:16:53;22.25;52.60
70421;SHT31;57848;51.938;15.520;2023-07-13T00:19:18;22.25;52.33
70421;SHT31;57848;51.938;15.520;2023-07-13T00:21:44;22.24;52.14
70421;SHT31;57848;51.938;15.520;2023-07-13T00:24:14;22.23;52.24
70421;SHT31;57848;51.938;15.520;2023-07-13T00:26:41;22.23;52.34
70421;SHT31;57848;51.938;15.520;2023-07-13T00:29:10;22.21;51.68
70421;SHT31;57848;51.938;15.520;2023-07-13T00:31:35;22.24;51.77
70421;SHT31;57848;51.938;15.520;2023-07-13T00:34:01;22.17;51.89
70421;SHT31;57848;51.938;15.520;2023-07-13T00:36:27;22.18;52.10
70421;SHT31;57848;51.938;15.520;2023-07-13T00:38:52;22.18;52.14
70421;SHT31;57848;51.938;15.520;2023-07-13T00:41:18;22.16;51.83
70421;SHT31;57848;51.938;15.520;2023-07-13T00:43:44;22.13;51.84
70421;SHT31;57848;51.938;15.520;2023-07-13T00:46:35;22.14;51.78
70421;SHT31;57848;51.938;15.520;2023-07-13T00:49:07;22.09;51.98
70421;SHT31;57848;51.938;15.520;2023-07-13T00:51:36;22.04;51.43
70421;SHT31;57848;51.938;15.520;2023-07-13T00:54:05;22.10;50.97
70421;SHT31;57848;51.938;15.520;2023-07-13T00:56:32;22.00;51.51
70421;SHT31;57848;51.938;15.520;2023-07-13T00:59:00;21.97;51.88
70421;SHT31;57848;51.938;15.520;2023-07-13T01:01:27;21.96;51.46
70421;SHT31;57848;51.938;15.520;2023-07-13T01:03:52;21.89;51.19
70421;SHT31;57848;51.938;15.520;2023-07-13T01:06:19;21.92;51.85
70421;SHT31;57848;51.938;15.520;2023-07-13T01:08:44;21.88;52.09
70421;SHT31;57848;51.938;15.520;2023-07-13T01:11:10;21.79;52.51
70421;SHT31;57848;51.938;15.520;2023-07-13T01:13:35;21.75;52.52
70421;SHT31;57848;51.938;15.520;2023-07-13T01:16:04;21.73;52.53
70421;SHT31;57848;51.938;15.520;2023-07-13T01:18:31;21.66;52.65
70421;SHT31;57848;51.938;15.520;2023-07-13T01:20:58;21.69;52.81
70421;SHT31;57848;51.938;15.520;2023-07-13T01:23:25;21.65;53.35
70421;SHT31;57848;51.938;15.520;2023-07-13T01:25:51;21.71;52.91
70421;SHT31;57848;51.938;15.520;2023-07-13T01:28:17;21.67;52.74
70421;SHT31;57848;51.938;15.520;2023-07-13T01:30:45;21.66;52.94
70421;SHT31;57848;51.938;15.520;2023-07-13T01:33:17;21.67;52.71
70421;SHT31;57848;51.938;15.520;2023-07-13T01:35:44;21.59;53.16
70421;SHT31;57848;51.938;15.520;2023-07-13T01:38:12;21.48;53.50
70421;SHT31;57848;51.938;15.520;2023-07-13T01:40:38;21.46;53.77
70421;SHT31;57848;51.938;15.520;2023-07-13T01:43:03;21.39;54.33
70421;SHT31;57848;51.938;15.520;2023-07-13T01:45:29;21.30;54.29
70421;SHT31;57848;51.938;15.520;2023-07-13T01:47:54;21.23;54.83
70421;SHT31;57848;51.938;15.520;2023-07-13T01:50:20;21.14;54.69
70421;SHT31;57848;51.938;15.520;2023-07-13T01:52:45;21.08;54.91
70421;SHT31;57848;51.938;15.520;2023-07-13T01:55:11;21.05;55.14
70421;SHT31;57848;51.938;15.520;2023-07-13T01:57:36;20.98;55.48
70421;SHT31;57848;51.938;15.520;2023-07-13T02:00:05;20.94;55.73
70421;SHT31;57848;51.938;15.520;2023-07-13T02:02:41;20.93;55.89
70421;SHT31;57848;51.938;15.520;2023-07-13T02:05:08;20.77;56.41
70421;SHT31;57848;51.938;15.520;2023-07-13T02:07:34;20.80;56.60
70421;SHT31;57848;51.938;15.520;2023-07-13T02:09:59;20.80;56.60
70421;SHT31;57848;51.938;15.520;2023-07-13T02:12:24;20.80;56.66
70421;SHT31;57848;51.938;15.520;2023-07-13T02:14:50;20.76;57.09
70421;SHT31;57848;51.938;15.520;2023-07-13T02:17:15;20.79;57.14
70421;SHT31;57848;51.938;15.520;2023-07-13T02:19:40;20.72;57.39
70421;SHT31;57848;51.938;15.520;2023-07-13T02:22:06;20.67;57.98
70421;SHT31;57848;51.938;15.520;2023-07-13T02:24:31;20.70;58.12
70421;SHT31;57848;51.938;15.520;2023-07-13T02:26:57;20.59;58.53
70421;SHT31;57848;51.938;15.520;2023-07-13T02:29:22;20.50;59.04
70421;SHT31;57848;51.938;15.520;2023-07-13T02:31:48;20.57;59.16
70421;SHT31;57848;51.938;15.520;2023-07-13T02:34:14;20.47;59.53
70421;SHT31;57848;51.938;15.520;2023-07-13T02:36:39;20.35;60.03
70421;SHT31;57848;51.938;15.520;2023-07-13T02:39:06;20.35;60.43
70421;SHT31;57848;51.938;15.520;2023-07-13T02:41:35;20.35;60.27
70421;SHT31;57848;51.938;15.520;2023-07-13T02:44:00;20.30;60.62
70421;SHT31;57848;51.938;15.520;2023-07-13T02:46:37;20.24;61.23
70421;SHT31;57848;51.938;15.520;2023-07-13T02:49:03;20.22;61.51
70421;SHT31;57848;51.938;15.520;2023-07-13T02:51:29;20.19;61.78
70421;SHT31;57848;51.938;15.520;2023-07-13T02:53:54;20.11;61.87
70421;SHT31;57848;51.938;15.520;2023-07-13T02:56:23;20.11;62.10
70421;SHT31;57848;51.938;15.520;2023-07-13T02:58:50;20.02;62.36
70421;SHT31;57848;51.938;15.520;2023-07-13T03:01:15;19.94;63.05
70421;SHT31;57848;51.938;15.520;2023-07-13T03:03:45;19.94;63.48
70421;SHT31;57848;51.938;15.520;2023-07-13T03:06:11;19.88;64.09
70421;SHT31;57848;51.938;15.520;2023-07-13T03:08:45;19.78;64.74
70421;SHT31;57848;51.938;15.520;2023-07-13T03:11:16;19.79;64.88
70421;SHT31;57848;51.938;15.520;2023-07-13T03:13:43;19.74;65.39
70421;SHT31;57848;51.938;15.520;2023-07-13T03:16:10;19.74;65.70
70421;SHT31;57848;51.938;15.520;2023-07-13T03:18:36;19.71;65.73
70421;SHT31;57848;51.938;15.520;2023-07-13T03:21:05;19.78;65.63
70421;SHT31;57848;51.938;15.520;2023-07-13T03:23:31;19.73;65.60
70421;SHT31;57848;51.938;15.520;2023-07-13T03:26:06;19.77;65.49
70421;SHT31;57848;51.938;15.520;2023-07-13T03:28:32;19.75;65.80
70421;SHT31;57848;51.938;15.520;2023-07-13T03:31:04;19.79;65.91
70421;SHT31;57848;51.938;15.520;2023-07-13T03:33:31;19.88;65.84
70421;SHT31;57848;51.938;15.520;2023-07-13T03:35:56;19.81;66.12
70421;SHT31;57848;51.938;15.520;2023-07-13T03:38:22;19.86;66.58
70421;SHT31;57848;51.938;15.520;2023-07-13T03:40:48;19.85;66.47
70421;SHT31;57848;51.938;15.520;2023-07-13T03:43:14;19.92;66.61
70421;SHT31;57848;51.938;15.520;2023-07-13T03:45:40;19.95;66.66
70421;SHT31;57848;51.938;15.520;2023-07-13T03:48:05;19.96;66.83
70421;SHT31;57848;51.938;15.520;2023-07-13T03:50:31;19.95;67.04
70421;SHT31;57848;51.938;15.520;2023-07-13T03:52:58;19.99;67.19
70421;SHT31;57848;51.938;15.520;2023-07-13T03:55:23;20.05;66.79
70421;SHT31;57848;51.938;15.520;2023-07-13T03:57:57;20.06;66.74
70421;SHT31;57848;51.938;15.520;2023-07-13T04:00:23;20.06;67.31
70421;SHT31;57848;51.938;15.520;2023-07-13T04:02:48;20.06;67.27
70421;SHT31;57848;51.938;15.520;2023-07-13T04:05:15;20.05;67.33
70421;SHT31;57848;51.938;15.520;2023-07-13T04:07:40;20.08;67.27
70421;SHT31;57848;51.938;15.520;2023-07-13T04:10:06;20.09;66.82
70421;SHT31;57848;51.938;15.520;2023-07-13T04:12:31;20.12;66.88
70421;SHT31;57848;51.938;15.520;2023-07-13T04:14:57;20.14;66.94
70421;SHT31;57848;51.938;15.520;2023-07-13T04:17:22;20.14;66.89
70421;SHT31;57848;51.938;15.520;2023-07-13T04:19:47;20.15;66.92
70421;SHT31;57848;51.938;15.520;2023-07-13T04:22:14;20.19;66.52
70421;SHT31;57848;51.938;15.520;2023-07-13T04:24:39;20.22;66.62
70421;SHT31;57848;51.938;15.520;2023-07-13T04:27:04;20.28;66.61
70421;SHT31;57848;51.938;15.520;2023-07-13T04:29:30;20.29;66.56
70421;SHT31;57848;51.938;15.520;2023-07-13T04:31:55;20.29;66.20
70421;SHT31;57848;51.938;15.520;2023-07-13T04:34:21;20.39;66.24
70421;SHT31;57848;51.938;15.520;2023-07-13T04:36:46;20.30;66.47
70421;SHT31;57848;51.938;15.520;2023-07-13T04:39:11;20.33;67.07
70421;SHT31;57848;51.938;15.520;2023-07-13T04:41:37;20.39;66.78
70421;SHT31;57848;51.938;15.520;2023-07-13T04:44:02;20.43;66.74
70421;SHT31;57848;51.938;15.520;2023-07-13T04:46:28;20.42;66.85
70421;SHT31;57848;51.938;15.520;2023-07-13T04:48:53;20.47;66.53
70421;SHT31;57848;51.938;15.520;2023-07-13T04:51:19;20.45;66.36
70421;SHT31;57848;51.938;15.520;2023-07-13T04:53:44;20.47;66.41
70421;SHT31;57848;51.938;15.520;2023-07-13T04:56:10;20.49;66.58
70421;SHT31;57848;51.938;15.520;2023-07-13T04:58:35;20.49;66.83
70421;SHT31;57848;51.938;15.520;2023-07-13T05:01:02;20.55;65.85
70421;SHT31;57848;51.938;15.520;2023-07-13T05:03:28;20.64;65.37
70421;SHT31;57848;51.938;15.520;2023-07-13T05:05:58;20.66;64.98
70421;SHT31;57848;51.938;15.520;2023-07-13T05:08:23;20.67;64.41
70421;SHT31;57848;51.938;15.520;2023-07-13T05:10:50;20.62;64.36
70421;SHT31;57848;51.938;15.520;2023-07-13T05:13:15;20.66;64.43
70421;SHT31;57848;51.938;15.520;2023-07-13T05:15:41;20.64;64.53
70421;SHT31;57848;51.938;15.520;2023-07-13T05:18:06;20.70;64.21
70421;SHT31;57848;51.938;15.520;2023-07-13T05:20:31;20.64;64.44
70421;SHT31;57848;51.938;15.520;2023-07-13T05:22:57;20.64;65.20
70421;SHT31;57848;51.938;15.520;2023-07-13T05:25:22;20.67;65.07
70421;SHT31;57848;51.938;15.520;2023-07-13T05:27:47;20.76;64.73
70421;SHT31;57848;51.938;15.520;2023-07-13T05:30:13;20.80;64.66
70421;SHT31;57848;51.938;15.520;2023-07-13T05:32:39;20.76;65.26
70421;SHT31;57848;51.938;15.520;2023-07-13T05:35:05;20.80;65.25
70421;SHT31;57848;51.938;15.520;2023-07-13T05:37:30;20.86;65.35
70421;SHT31;57848;51.938;15.520;2023-07-13T05:39:56;20.87;65.45
70421;SHT31;57848;51.938;15.520;2023-07-13T05:42:21;20.88;65.30
70421;SHT31;57848;51.938;15.520;2023-07-13T05:44:46;20.81;66.04
70421;SHT31;57848;51.938;15.520;2023-07-13T05:47:12;20.98;65.15
70421;SHT31;57848;51.938;15.520;2023-07-13T05:49:39;21.01;64.76
70421;SHT31;57848;51.938;15.520;2023-07-13T05:52:05;20.93;65.03
70421;SHT31;57848;51.938;15.520;2023-07-13T05:54:30;20.91;65.06
70421;SHT31;57848;51.938;15.520;2023-07-13T05:56:55;20.81;65.47
70421;SHT31;57848;51.938;15.520;2023-07-13T05:59:21;20.79;65.49
70421;SHT31;57848;51.938;15.520;2023-07-13T06:01:46;20.86;65.44
70421;SHT31;57848;51.938;15.520;2023-07-13T06:04:11;20.97;65.92
70421;SHT31;57848;51.938;15.520;2023-07-13T06:06:37;21.01;65.36
70421;SHT31;57848;51.938;15.520;2023-07-13T06:09:02;21.00;65.30
70421;SHT31;57848;51.938;15.520;2023-07-13T06:11:28;20.95;65.53
70421;SHT31;57848;51.938;15.520;2023-07-13T06:13:55;20.95;65.68
70421;SHT31;57848;51.938;15.520;2023-07-13T06:16:22;21.01;65.14
70421;SHT31;57848;51.938;15.520;2023-07-13T06:18:47;20.91;65.15
70421;SHT31;57848;51.938;15.520;2023-07-13T06:21:18;20.79;65.61
70421;SHT31;57848;51.938;15.520;2023-07-13T06:23:44;20.69;65.51
70421;SHT31;57848;51.938;15.520;2023-07-13T06:26:10;20.69;65.97
70421;SHT31;57848;51.938;15.520;2023-07-13T06:28:36;20.73;65.52
70421;SHT31;57848;51.938;15.520;2023-07-13T06:31:08;20.84;65.18
70421;SHT31;57848;51.938;15.520;2023-07-13T06:33:34;20.84;65.32
70421;SHT31;57848;51.938;15.520;2023-07-13T06:36:00;20.88;65.83
70421;SHT31;57848;51.938;15.520;2023-07-13T06:38:25;21.04;65.33
70421;SHT31;57848;51.938;15.520;2023-07-13T06:40:51;21.05;65.37
70421;SHT31;57848;51.938;15.520;2023-07-13T06:43:16;21.04;65.46
70421;SHT31;57848;51.938;15.520;2023-07-13T06:45:45;21.11;65.39
70421;SHT31;57848;51.938;15.520;2023-07-13T06:48:13;21.10;65.41
70421;SHT31;57848;51.938;15.520;2023-07-13T06:50:38;21.25;65.26
70421;SHT31;57848;51.938;15.520;2023-07-13T06:53:03;21.41;65.46
70421;SHT31;57848;51.938;15.520;2023-07-13T06:55:29;21.61;64.96
70421;SHT31;57848;51.938;15.520;2023-07-13T06:57:54;21.75;63.92
70421;SHT31;57848;51.938;15.520;2023-07-13T07:00:19;21.83;63.12
70421;SHT31;57848;51.938;15.520;2023-07-13T07:02:45;21.89;63.19
70421;SHT31;57848;51.938;15.520;2023-07-13T07:05:10;22.02;63.24
70421;SHT31;57848;51.938;15.520;2023-07-13T07:07:35;22.12;62.16
70421;SHT31;57848;51.938;15.520;2023-07-13T07:10:01;22.25;62.46
70421;SHT31;57848;51.938;15.520;2023-07-13T07:12:26;22.39;61.28
70421;SHT31;57848;51.938;15.520;2023-07-13T07:14:51;22.41;61.98
70421;SHT31;57848;51.938;15.520;2023-07-13T07:17:17;22.40;62.59
70421;SHT31;57848;51.938;15.520;2023-07-13T07:19:42;22.45;61.22
70421;SHT31;57848;51.938;15.520;2023-07-13T07:22:07;22.51;61.24
70421;SHT31;57848;51.938;15.520;2023-07-13T07:24:33;22.61;60.30
70421;SHT31;57848;51.938;15.520;2023-07-13T07:26:58;22.44;59.27
70421;SHT31;57848;51.938;15.520;2023-07-13T07:29:24;22.52;58.21
70421;SHT31;57848;51.938;15.520;2023-07-13T07:31:51;22.51;58.93
70421;SHT31;57848;51.938;15.520;2023-07-13T07:34:17;22.61;57.92
70421;SHT31;57848;51.938;15.520;2023-07-13T07:36:42;22.60;58.91
70421;SHT31;57848;51.938;15.520;2023-07-13T07:39:08;22.71;59.51
70421;SHT31;57848;51.938;15.520;2023-07-13T07:41:33;22.74;58.17
70421;SHT31;57848;51.938;15.520;2023-07-13T07:43:58;22.76;57.09
70421;SHT31;57848;51.938;15.520;2023-07-13T07:46:24;22.90;55.51
70421;SHT31;57848;51.938;15.520;2023-07-13T07:48:49;22.90;55.50
70421;SHT31;57848;51.938;15.520;2023-07-13T07:51:14;22.91;55.54
70421;SHT31;57848;51.938;15.520;2023-07-13T07:53:40;22.92;56.68
70421;SHT31;57848;51.938;15.520;2023-07-13T07:56:05;22.95;53.72
70421;SHT31;57848;51.938;15.520;2023-07-13T07:58:31;23.01;53.69
70421;SHT31;57848;51.938;15.520;2023-07-13T08:01:04;22.92;53.67
70421;SHT31;57848;51.938;15.520;2023-07-13T08:03:30;22.98;54.52
70421;SHT31;57848;51.938;15.520;2023-07-13T08:05:55;22.99;54.89
70421;SHT31;57848;51.938;15.520;2023-07-13T08:08:20;23.05;54.46
70421;SHT31;57848;51.938;15.520;2023-07-13T08:10:46;23.08;53.98
70421;SHT31;57848;51.938;15.520;2023-07-13T08:13:11;23.03;54.06
70421;SHT31;57848;51.938;15.520;2023-07-13T08:15:37;23.03;54.46
70421;SHT31;57848;51.938;15.520;2023-07-13T08:18:02;23.09;54.80
70421;SHT31;57848;51.938;15.520;2023-07-13T08:20:28;23.15;53.55
70421;SHT31;57848;51.938;15.520;2023-07-13T08:22:53;23.29;53.82
70421;SHT31;57848;51.938;15.520;2023-07-13T08:25:18;23.53;53.01
70421;SHT31;57848;51.938;15.520;2023-07-13T08:27:45;23.84;52.87
70421;SHT31;57848;51.938;15.520;2023-07-13T08:30:11;24.18;53.03
70421;SHT31;57848;51.938;15.520;2023-07-13T08:32:36;24.33;51.74
70421;SHT31;57848;51.938;15.520;2023-07-13T08:35:02;24.31;51.67
70421;SHT31;57848;51.938;15.520;2023-07-13T08:37:28;24.43;50.35
70421;SHT31;57848;51.938;15.520;2023-07-13T08:39:53;24.48;50.20
70421;SHT31;57848;51.938;15.520;2023-07-13T08:42:36;24.56;50.47
70421;SHT31;57848;51.938;15.520;2023-07-13T08:45:17;24.56;50.57
70421;SHT31;57848;51.938;15.520;2023-07-13T08:47:48;24.73;50.36
70421;SHT31;57848;51.938;15.520;2023-07-13T08:50:18;24.59;50.06
70421;SHT31;57848;51.938;15.520;2023-07-13T08:52:45;24.53;51.05
70421;SHT31;57848;51.938;15.520;2023-07-13T08:55:21;24.59;51.73
70421;SHT31;57848;51.938;15.520;2023-07-13T08:57:59;24.56;50.84
70421;SHT31;57848;51.938;15.520;2023-07-13T09:00:34;24.38;51.17
70421;SHT31;57848;51.938;15.520;2023-07-13T09:03:03;24.49;51.66
70421;SHT31;57848;51.938;15.520;2023-07-13T09:05:56;24.48;51.75
70421;SHT31;57848;51.938;15.520;2023-07-13T09:08:52;24.42;52.17
70421;SHT31;57848;51.938;15.520;2023-07-13T09:11:34;24.36;51.51
70421;SHT31;57848;51.938;15.520;2023-07-13T09:14:17;24.39;50.33
70421;SHT31;57848;51.938;15.520;2023-07-13T09:16:45;24.47;51.28
70421;SHT31;57848;51.938;15.520;2023-07-13T09:19:21;24.43;50.58
70421;SHT31;57848;51.938;15.520;2023-07-13T09:21:52;24.41;51.23
70421;SHT31;57848;51.938;15.520;2023-07-13T09:24:44;24.38;51.41
70421;SHT31;57848;51.938;15.520;2023-07-13T09:27:17;24.51;52.11
70421;SHT31;57848;51.938;15.520;2023-07-13T09:29:48;24.59;52.74
70421;SHT31;57848;51.938;15.520;2023-07-13T09:32:18;24.63;50.17
70421;SHT31;57848;51.938;15.520;2023-07-13T09:34:51;24.63;50.61
70421;SHT31;57848;51.938;15.520;2023-07-13T09:37:16;24.63;50.61
70421;SHT31;57848;51.938;15.520;2023-07-13T09:39:42;24.72;51.31
70421;SHT31;57848;51.938;15.520;2023-07-13T09:42:12;24.99;49.92
70421;SHT31;57848;51.938;15.520;2023-07-13T09:47:17;25.21;47.54
70421;SHT31;57848;51.938;15.520;2023-07-13T09:49:43;25.33;48.16
70421;SHT31;57848;51.938;15.520;2023-07-13T09:52:14;25.42;48.65
70421;SHT31;57848;51.938;15.520;2023-07-13T09:54:45;25.35;49.32
70421;SHT31;57848;51.938;15.520;2023-07-13T09:57:14;25.21;49.35
70421;SHT31;57848;51.938;15.520;2023-07-13T09:59:41;25.33;49.76
70421;SHT31;57848;51.938;15.520;2023-07-13T10:02:29;25.52;48.92
70421;SHT31;57848;51.938;15.520;2023-07-13T10:04:58;25.81;47.69
70421;SHT31;57848;51.938;15.520;2023-07-13T10:07:24;25.75;47.51
70421;SHT31;57848;51.938;15.520;2023-07-13T10:09:53;25.69;48.31
70421;SHT31;57848;51.938;15.520;2023-07-13T10:12:20;25.93;46.69
70421;SHT31;57848;51.938;15.520;2023-07-13T10:14:46;26.20;47.03
70421;SHT31;57848;51.938;15.520;2023-07-13T10:17:13;26.27;45.15
70421;SHT31;57848;51.938;15.520;2023-07-13T10:19:41;26.35;46.64
70421;SHT31;57848;51.938;15.520;2023-07-13T10:22:23;26.63;45.99
70421;SHT31;57848;51.938;15.520;2023-07-13T10:24:50;26.77;46.96
70421;SHT31;57848;51.938;15.520;2023-07-13T10:27:18;26.67;45.43
70421;SHT31;57848;51.938;15.520;2023-07-13T10:30:00;26.57;44.06
70421;SHT31;57848;51.938;15.520;2023-07-13T10:32:26;26.97;43.69
70421;SHT31;57848;51.938;15.520;2023-07-13T10:34:52;27.19;41.11
70421;SHT31;57848;51.938;15.520;2023-07-13T10:37:26;27.41;40.24
70421;SHT31;57848;51.938;15.520;2023-07-13T10:39:54;27.97;40.10
70421;SHT31;57848;51.938;15.520;2023-07-13T10:42:37;27.89;40.55
70421;SHT31;57848;51.938;15.520;2023-07-13T10:45:19;29.02;39.14
70421;SHT31;57848;51.938;15.520;2023-07-13T10:47:45;29.81;39.16
70421;SHT31;57848;51.938;15.520;2023-07-13T10:50:21;28.99;38.53
70421;SHT31;57848;51.938;15.520;2023-07-13T10:52:50;28.96;39.00
70421;SHT31;57848;51.938;15.520;2023-07-13T10:55:40;28.43;39.83
70421;SHT31;57848;51.938;15.520;2023-07-13T11:03:29;29.29;38.71
70421;SHT31;57848;51.938;15.520;2023-07-13T11:06:11;28.89;39.73
70421;SHT31;57848;51.938;15.520;2023-07-13T11:11:32;28.74;39.76
70421;SHT31;57848;51.938;15.520;2023-07-13T11:14:03;28.15;40.01
70421;SHT31;57848;51.938;15.520;2023-07-13T11:16:35;27.70;39.99
70421;SHT31;57848;51.938;15.520;2023-07-13T11:21:29;27.34;40.40
70421;SHT31;57848;51.938;15.520;2023-07-13T11:24:15;28.22;39.60
70421;SHT31;57848;51.938;15.520;2023-07-13T11:29:27;30.28;36.68
70421;SHT31;57848;51.938;15.520;2023-07-13T11:32:10;31.30;35.73
70421;SHT31;57848;51.938;15.520;2023-07-13T11:34:45;32.23;33.46
70421;SHT31;57848;51.938;15.520;2023-07-13T11:37:12;31.51;34.72
70421;SHT31;57848;51.938;15.520;2023-07-13T11:39:42;32.23;32.92
70421;SHT31;57848;51.938;15.520;2023-07-13T11:42:12;32.14;34.02
70421;SHT31;57848;51.938;15.520;2023-07-13T11:44:46;32.00;34.33
70421;SHT31;57848;51.938;15.520;2023-07-13T11:47:22;33.18;34.57
70421;SHT31;57848;51.938;15.520;2023-07-13T11:49:53;33.59;32.02
70421;SHT31;57848;51.938;15.520;2023-07-13T11:52:23;34.33;32.63
70421;SHT31;57848;51.938;15.520;2023-07-13T11:54:54;35.54;30.64
70421;SHT31;57848;51.938;15.520;2023-07-13T11:57:29;35.82;29.82
70421;SHT31;57848;51.938;15.520;2023-07-13T11:59:56;36.21;29.79
70421;SHT31;57848;51.938;15.520;2023-07-13T12:02:34;37.13;28.44
70421;SHT31;57848;51.938;15.520;2023-07-13T12:05:02;36.53;28.63
70421;SHT31;57848;51.938;15.520;2023-07-13T12:07:30;35.30;29.78
70421;SHT31;57848;51.938;15.520;2023-07-13T12:10:16;33.28;32.68
70421;SHT31;57848;51.938;15.520;2023-07-13T12:12:53;33.11;33.04
70421;SHT31;57848;51.938;15.520;2023-07-13T12:15:20;32.07;34.27
70421;SHT31;57848;51.938;15.520;2023-07-13T12:17:47;31.30;35.67
70421;SHT31;57848;51.938;15.520;2023-07-13T12:20:35;31.86;35.45
70421;SHT31;57848;51.938;15.520;2023-07-13T12:23:05;32.31;34.28
70421;SHT31;57848;51.938;15.520;2023-07-13T12:25:31;31.63;35.55
70421;SHT31;57848;51.938;15.520;2023-07-13T12:27:56;30.60;36.20
70421;SHT31;57848;51.938;15.520;2023-07-13T12:33:08;29.80;37.40
70421;SHT31;57848;51.938;15.520;2023-07-13T12:35:42;29.23;38.09
70421;SHT31;57848;51.938;15.520;2023-07-13T12:38:10;28.88;39.05
70421;SHT31;57848;51.938;15.520;2023-07-13T12:40:36;28.80;39.77
70421;SHT31;57848;51.938;15.520;2023-07-13T12:43:03;28.08;40.11
70421;SHT31;57848;51.938;15.520;2023-07-13T12:45:30;27.96;41.33
70421;SHT31;57848;51.938;15.520;2023-07-13T12:48:04;27.45;41.58
70421;SHT31;57848;51.938;15.520;2023-07-13T12:50:41;27.69;42.58
70421;SHT31;57848;51.938;15.520;2023-07-13T12:53:13;27.84;42.90
70421;SHT31;57848;51.938;15.520;2023-07-13T12:55:44;27.86;41.73
70421;SHT31;57848;51.938;15.520;2023-07-13T12:58:18;29.03;39.37
70421;SHT31;57848;51.938;15.520;2023-07-13T13:00:49;30.28;37.66
70421;SHT31;57848;51.938;15.520;2023-07-13T13:03:32;30.95;36.61
70421;SHT31;57848;51.938;15.520;2023-07-13T13:06:20;30.33;37.33
70421;SHT31;57848;51.938;15.520;2023-07-13T13:08:49;30.94;36.96
70421;SHT31;57848;51.938;15.520;2023-07-13T13:11:18;31.37;36.50
70421;SHT31;57848;51.938;15.520;2023-07-13T13:13:44;30.73;36.20
70421;SHT31;57848;51.938;15.520;2023-07-13T13:18:52;32.40;34.63
70421;SHT31;57848;51.938;15.520;2023-07-13T13:21:18;32.94;33.02
70421;SHT31;57848;51.938;15.520;2023-07-13T13:23:44;33.01;32.05
70421;SHT31;57848;51.938;15.520;2023-07-13T13:26:12;32.61;33.85
70421;SHT31;57848;51.938;15.520;2023-07-13T13:28:37;31.68;35.43
70421;SHT31;57848;51.938;15.520;2023-07-13T13:31:03;30.94;35.62
70421;SHT31;57848;51.938;15.520;2023-07-13T13:33:28;30.06;37.78
70421;SHT31;57848;51.938;15.520;2023-07-13T13:35:55;29.07;38.46
70421;SHT31;57848;51.938;15.520;2023-07-13T13:38:25;28.85;38.99
70421;SHT31;57848;51.938;15.520;2023-07-13T13:40:51;29.94;37.87
70421;SHT31;57848;51.938;15.520;2023-07-13T13:45:43;32.63;33.86
70421;SHT31;57848;51.938;15.520;2023-07-13T13:48:18;33.15;33.71
70421;SHT31;57848;51.938;15.520;2023-07-13T13:50:43;33.49;32.75
70421;SHT31;57848;51.938;15.520;2023-07-13T13:53:11;33.14;32.93
70421;SHT31;57848;51.938;15.520;2023-07-13T13:55:38;32.36;34.59
70421;SHT31;57848;51.938;15.520;2023-07-13T13:58:03;31.78;34.77
70421;SHT31;57848;51.938;15.520;2023-07-13T14:00:29;31.88;34.83
70421;SHT31;57848;51.938;15.520;2023-07-13T14:02:55;31.99;34.65
70421;SHT31;57848;51.938;15.520;2023-07-13T14:05:24;32.77;33.88
70421;SHT31;57848;51.938;15.520;2023-07-13T14:07:51;33.60;33.32
70421;SHT31;57848;51.938;15.520;2023-07-13T14:10:18;33.08;32.88
70421;SHT31;57848;51.938;15.520;2023-07-13T14:12:47;33.78;32.14
70421;SHT31;57848;51.938;15.520;2023-07-13T14:15:21;33.22;34.72
70421;SHT31;57848;51.938;15.520;2023-07-13T14:17:46;32.67;34.68
70421;SHT31;57848;51.938;15.520;2023-07-13T14:20:15;31.96;34.64
70421;SHT31;57848;51.938;15.520;2023-07-13T14:22:41;31.48;37.07
70421;SHT31;57848;51.938;15.520;2023-07-13T14:25:11;30.32;36.63
70421;SHT31;57848;51.938;15.520;2023-07-13T14:27:36;30.62;36.21
70421;SHT31;57848;51.938;15.520;2023-07-13T14:30:02;29.95;36.98
70421;SHT31;57848;51.938;15.520;2023-07-13T14:32:27;29.74;38.78
70421;SHT31;57848;51.938;15.520;2023-07-13T14:34:53;29.33;38.30
70421;SHT31;57848;51.938;15.520;2023-07-13T14:37:18;29.13;38.52
70421;SHT31;57848;51.938;15.520;2023-07-13T14:39:44;29.10;38.43
70421;SHT31;57848;51.938;15.520;2023-07-13T14:42:13;29.06;38.84
70421;SHT31;57848;51.938;15.520;2023-07-13T14:44:39;28.71;39.05
70421;SHT31;57848;51.938;15.520;2023-07-13T14:47:06;28.99;39.06
70421;SHT31;57848;51.938;15.520;2023-07-13T14:49:36;28.74;38.40
70421;SHT31;57848;51.938;15.520;2023-07-13T14:52:19;28.61;38.31
70421;SHT31;57848;51.938;15.520;2023-07-13T14:54:46;28.56;37.91
70421;SHT31;57848;51.938;15.520;2023-07-13T14:57:12;28.14;39.13
70421;SHT31;57848;51.938;15.520;2023-07-13T14:59:38;28.35;39.34
70421;SHT31;57848;51.938;15.520;2023-07-13T15:02:13;28.31;39.39
70421;SHT31;57848;51.938;15.520;2023-07-13T15:04:39;28.45;38.41
70421;SHT31;57848;51.938;15.520;2023-07-13T15:07:05;28.31;39.07
70421;SHT31;57848;51.938;15.520;2023-07-13T15:09:30;28.18;39.14
70421;SHT31;57848;51.938;15.520;2023-07-13T15:11:56;28.08;39.13
70421;SHT31;57848;51.938;15.520;2023-07-13T15:14:22;27.97;39.62
70421;SHT31;57848;51.938;15.520;2023-07-13T15:16:52;28.07;39.55
70421;SHT31;57848;51.938;15.520;2023-07-13T15:19:19;27.96;39.20
70421;SHT31;57848;51.938;15.520;2023-07-13T15:21:44;27.98;40.25
70421;SHT31;57848;51.938;15.520;2023-07-13T15:24:10;28.04;40.63
70421;SHT31;57848;51.938;15.520;2023-07-13T15:26:35;27.97;39.74
70421;SHT31;57848;51.938;15.520;2023-07-13T15:29:02;27.83;38.78
70421;SHT31;57848;51.938;15.520;2023-07-13T15:31:28;27.74;40.42
70421;SHT31;57848;51.938;15.520;2023-07-13T15:33:55;27.65;39.53
70421;SHT31;57848;51.938;15.520;2023-07-13T15:36:23;27.42;38.97
70421;SHT31;57848;51.938;15.520;2023-07-13T15:38:50;27.05;39.41
70421;SHT31;57848;51.938;15.520;2023-07-13T15:41:25;27.04;40.20
70421;SHT31;57848;51.938;15.520;2023-07-13T15:43:54;26.99;40.29
70421;SHT31;57848;51.938;15.520;2023-07-13T15:46:21;27.08;39.24